createdAt,value
2019-04-07T00:02:25.276Z,11.57
2019-04-07T00:04:53.470Z,11.58
2019-04-07T00:07:20.761Z,11.60
2019-04-07T00:09:48.051Z,11.58
2019-04-07T00:12:15.301Z,11.65
2019-04-07T00:14:42.519Z,11.73
2019-04-07T00:17:10.479Z,11.73
2019-04-07T00:19:39.503Z,11.91
2019-04-07T00:22:06.943Z,11.72
2019-04-07T00:24:36.793Z,11.79
2019-04-07T00:27:04.288Z,11.81
2019-04-07T00:29:31.470Z,11.75
2019-04-07T00:32:03.546Z,11.67
2019-04-07T00:34:37.039Z,11.45
2019-04-07T00:37:05.528Z,11.08
2019-04-07T00:39:34.608Z,10.71
2019-04-07T00:42:02.014Z,10.62
2019-04-07T00:44:30.018Z,10.56
2019-04-07T00:46:58.642Z,10.66
2019-04-07T00:49:26.029Z,10.75
2019-04-07T00:51:55.847Z,10.99
2019-04-07T00:54:22.974Z,11.17
2019-04-07T00:56:50.171Z,11.19
2019-04-07T00:59:17.491Z,11.19
2019-04-07T01:01:45.871Z,11.05
2019-04-07T01:04:14.436Z,11.15
2019-04-07T01:06:41.595Z,11.30
2019-04-07T01:09:11.259Z,11.25
2019-04-07T01:11:39.644Z,11.16
2019-04-07T01:14:09.341Z,11.01
2019-04-07T01:16:37.429Z,11.00
2019-04-07T01:19:04.678Z,10.84
2019-04-07T01:21:31.673Z,10.95
2019-04-07T01:23:59.070Z,11.18
2019-04-07T01:26:26.594Z,11.33
2019-04-07T01:28:56.125Z,11.40
2019-04-07T01:31:23.265Z,11.32
2019-04-07T01:33:52.129Z,11.12
2019-04-07T01:36:19.319Z,11.04
2019-04-07T01:38:47.517Z,10.85
2019-04-07T01:41:26.440Z,10.81
2019-04-07T01:44:16.119Z,10.81
2019-04-07T01:46:58.986Z,10.79
2019-04-07T01:49:44.494Z,10.77
2019-04-07T01:52:22.701Z,10.71
2019-04-07T01:54:55.939Z,10.70
2019-04-07T01:57:49.255Z,10.77
2019-04-07T02:00:39.128Z,10.74
2019-04-07T02:03:35.687Z,10.72
2019-04-07T02:06:27.584Z,10.77
2019-04-07T02:09:14.382Z,10.66
2019-04-07T02:12:00.563Z,10.52
2019-04-07T02:15:02.399Z,10.27
2019-04-07T02:17:39.152Z,9.96
2019-04-07T02:20:32.373Z,9.82
2019-04-07T02:23:10.186Z,9.85
2019-04-07T02:25:57.019Z,10.02
2019-04-07T02:28:38.680Z,10.28
2019-04-07T02:31:25.337Z,10.42
2019-04-07T02:34:00.123Z,10.34
2019-04-07T02:36:40.787Z,10.15
2019-04-07T02:39:15.267Z,10.10
2019-04-07T02:42:00.714Z,10.00
2019-04-07T02:44:50.819Z,10.06
2019-04-07T02:47:41.674Z,10.15
2019-04-07T02:50:33.794Z,10.10
2019-04-07T02:53:27.422Z,10.18
2019-04-07T02:56:09.973Z,10.03
2019-04-07T02:58:44.425Z,10.03
2019-04-07T03:01:33.685Z,9.95
2019-04-07T03:04:16.184Z,9.96
2019-04-07T03:07:05.600Z,9.93
2019-04-07T03:09:58.053Z,9.98
2019-04-07T03:12:33.848Z,9.98
2019-04-07T03:15:09.107Z,9.96
2019-04-07T03:17:49.772Z,9.98
2019-04-07T03:20:29.700Z,9.92
2019-04-07T03:23:16.310Z,9.97
2019-04-07T03:26:00.860Z,9.94
2019-04-07T03:28:47.423Z,9.88
2019-04-07T03:31:45.442Z,9.85
2019-04-07T03:34:33.402Z,9.77
2019-04-07T03:37:35.079Z,9.76
2019-04-07T03:40:02.461Z,9.73
2019-04-07T03:42:41.928Z,9.71
2019-04-07T03:45:28.790Z,9.66
2019-04-07T03:48:14.576Z,9.66
2019-04-07T03:50:50.837Z,9.60
2019-04-07T03:53:53.954Z,9.61
2019-04-07T03:56:49.943Z,9.64
2019-04-07T03:59:41.437Z,9.56
2019-04-07T04:02:21.635Z,9.45
2019-04-07T04:05:16.435Z,9.52
2019-04-07T04:08:02.250Z,9.55
2019-04-07T04:10:36.426Z,9.50
2019-04-07T04:13:25.991Z,9.41
2019-04-07T04:16:24.936Z,9.12
2019-04-07T04:18:54.566Z,9.04
2019-04-07T04:21:22.724Z,9.04
2019-04-07T04:23:49.759Z,9.15
2019-04-07T04:26:17.595Z,9.30
2019-04-07T04:28:44.731Z,9.33
2019-04-07T04:31:11.771Z,9.31
2019-04-07T04:33:39.567Z,9.20
2019-04-07T04:36:06.662Z,9.20
2019-04-07T04:38:33.738Z,9.12
2019-04-07T04:41:01.342Z,9.20
2019-04-07T04:43:28.541Z,9.24
2019-04-07T04:45:56.822Z,9.19
2019-04-07T04:48:23.926Z,9.02
2019-04-07T04:50:50.950Z,8.77
2019-04-07T04:53:19.233Z,8.88
2019-04-07T04:55:47.378Z,9.10
2019-04-07T04:58:15.282Z,9.05
2019-04-07T05:00:42.864Z,8.90
2019-04-07T05:03:10.032Z,8.71
2019-04-07T05:05:37.939Z,8.49
2019-04-07T05:08:05.479Z,8.44
2019-04-07T05:10:35.846Z,8.37
2019-04-07T05:13:02.962Z,8.39
2019-04-07T05:15:32.544Z,8.47
2019-04-07T05:18:00.405Z,8.49
2019-04-07T05:20:27.539Z,8.85
2019-04-07T05:22:54.586Z,8.81
2019-04-07T05:25:22.270Z,8.89
2019-04-07T05:27:49.518Z,9.03
2019-04-07T05:30:16.874Z,9.04
2019-04-07T05:32:44.341Z,9.45
2019-04-07T05:35:13.197Z,9.78
2019-04-07T05:37:40.622Z,9.97
2019-04-07T05:40:08.060Z,10.53
2019-04-07T05:42:35.470Z,10.88
2019-04-07T05:45:03.069Z,11.22
2019-04-07T05:47:31.821Z,11.47
2019-04-07T05:49:59.973Z,11.38
2019-04-07T05:52:29.692Z,11.40
2019-04-07T05:54:57.872Z,11.45
2019-04-07T05:57:25.307Z,11.13
2019-04-07T05:59:53.742Z,11.40
2019-04-07T06:02:22.401Z,11.73
2019-04-07T06:04:49.453Z,11.54
2019-04-07T06:07:16.530Z,12.01
2019-04-07T06:09:43.783Z,12.57
2019-04-07T06:12:12.235Z,12.35
2019-04-07T06:14:40.126Z,12.57
2019-04-07T06:17:07.379Z,12.80
2019-04-07T06:19:37.519Z,13.42
2019-04-07T06:22:05.467Z,13.98
2019-04-07T06:24:35.022Z,15.04
2019-04-07T06:27:02.292Z,15.67
2019-04-07T06:29:30.092Z,16.03
2019-04-07T06:31:57.826Z,16.44
2019-04-07T06:34:25.785Z,16.68
2019-04-07T06:36:55.471Z,17.05
2019-04-07T06:39:23.188Z,17.30
2019-04-07T06:41:52.414Z,17.36
2019-04-07T06:44:22.454Z,17.48
2019-04-07T06:47:21.422Z,17.74
2019-04-07T06:50:07.358Z,18.15
2019-04-07T06:52:57.693Z,18.40
2019-04-07T06:55:38.122Z,18.35
2019-04-07T06:58:38.532Z,18.45
2019-04-07T07:01:24.536Z,18.60
2019-04-07T07:04:22.301Z,17.27
2019-04-07T07:07:11.724Z,16.72
2019-04-07T07:10:02.102Z,16.82
2019-04-07T07:12:43.907Z,16.29
2019-04-07T07:15:46.125Z,16.26
2019-04-07T07:18:54.730Z,16.38
2019-04-07T07:21:34.060Z,16.29
2019-04-07T07:24:00.130Z,16.34
2019-04-07T07:26:28.284Z,16.41
2019-04-07T07:28:56.005Z,16.80
2019-04-07T07:31:25.431Z,17.47
2019-04-07T07:33:52.791Z,17.90
2019-04-07T07:36:22.704Z,18.03
2019-04-07T07:38:59.993Z,18.15
2019-04-07T07:41:22.370Z,17.62
2019-04-07T07:43:49.703Z,17.42
2019-04-07T07:46:20.574Z,16.88
2019-04-07T07:48:47.545Z,16.98
2019-04-07T07:51:15.371Z,17.22
2019-04-07T07:53:44.980Z,18.08
2019-04-07T07:56:13.601Z,18.32
2019-04-07T07:58:41.481Z,18.28
2019-04-07T08:01:12.259Z,18.14
2019-04-07T08:03:40.509Z,18.50
2019-04-07T08:06:08.374Z,18.58
2019-04-07T08:08:36.341Z,18.73
2019-04-07T08:11:04.525Z,19.17
2019-04-07T08:13:32.479Z,19.52
2019-04-07T08:16:00.448Z,20.03
2019-04-07T08:18:27.649Z,19.95
2019-04-07T08:20:54.824Z,19.83
2019-04-07T08:23:22.054Z,19.34
2019-04-07T08:25:53.473Z,19.39
2019-04-07T08:28:22.421Z,19.85
2019-04-07T08:30:51.577Z,19.42
2019-04-07T08:33:18.975Z,19.85
2019-04-07T08:35:46.940Z,20.87
2019-04-07T08:38:18.644Z,21.10
2019-04-07T08:40:43.503Z,21.82
2019-04-07T08:43:10.549Z,21.23
2019-04-07T08:45:39.760Z,20.17
2019-04-07T08:48:09.609Z,19.48
2019-04-07T08:50:37.428Z,19.51
2019-04-07T08:53:04.770Z,19.72
2019-04-07T08:55:31.778Z,19.80
2019-04-07T08:58:03.545Z,20.72
2019-04-07T09:00:35.036Z,20.08
2019-04-07T09:03:07.670Z,20.18
2019-04-07T09:05:31.359Z,20.27
2019-04-07T09:07:59.340Z,20.54
2019-04-07T09:10:33.519Z,20.10
2019-04-07T09:13:02.974Z,19.65
2019-04-07T09:15:43.060Z,18.66
2019-04-07T09:18:19.233Z,18.66
2019-04-07T09:20:51.863Z,18.33
2019-04-07T09:23:29.419Z,18.97
2019-04-07T09:26:22.916Z,19.33
2019-04-07T09:28:57.404Z,19.61
2019-04-07T09:31:50.848Z,19.35
2019-04-07T09:34:38.033Z,19.54
2019-04-07T09:37:34.094Z,20.94
2019-04-07T09:40:09.284Z,21.27
2019-04-07T09:47:28.188Z,21.11
2019-04-07T09:50:27.770Z,21.65
2019-04-07T09:53:17.972Z,22.37
2019-04-07T09:56:18.389Z,23.12
2019-04-07T09:59:01.661Z,24.55
2019-04-07T10:02:06.793Z,26.65
2019-04-07T10:04:59.569Z,27.38
2019-04-07T10:07:46.839Z,26.91
2019-04-07T10:10:34.115Z,27.68
2019-04-07T10:13:16.321Z,26.39
2019-04-07T10:16:18.565Z,23.15
2019-04-07T10:19:14.340Z,23.85
2019-04-07T10:22:17.965Z,24.72
2019-04-07T10:24:58.283Z,24.00
2019-04-07T10:27:44.082Z,25.08
2019-04-07T10:30:31.662Z,22.91
2019-04-07T10:33:23.750Z,25.55
2019-04-07T10:39:26.295Z,26.90
2019-04-07T10:42:08.792Z,25.96
2019-04-07T10:45:10.793Z,25.72
2019-04-07T10:48:16.529Z,27.21
2019-04-07T10:51:05.612Z,28.59
2019-04-07T10:53:47.256Z,29.00
2019-04-07T10:56:28.853Z,28.69
2019-04-07T10:59:05.670Z,28.53
2019-04-07T11:01:51.337Z,28.71
2019-04-07T11:04:49.170Z,27.44
2019-04-07T11:07:26.812Z,27.18
2019-04-07T11:10:12.695Z,28.81
2019-04-07T11:12:59.357Z,29.89
2019-04-07T11:15:44.725Z,32.42
2019-04-07T11:18:40.299Z,34.02
2019-04-07T11:21:33.836Z,34.91
2019-04-07T11:24:31.163Z,35.44
2019-04-07T11:27:59.555Z,38.04
2019-04-07T11:30:47.245Z,34.94
2019-04-07T11:33:19.368Z,31.56
2019-04-07T11:36:25.453Z,34.95
2019-04-07T11:39:15.095Z,31.35
2019-04-07T11:42:17.186Z,31.10
2019-04-07T11:45:16.649Z,32.49
2019-04-07T11:47:50.141Z,33.24
2019-04-07T11:50:25.585Z,34.21
2019-04-07T11:53:14.239Z,34.68
2019-04-07T11:56:09.909Z,34.01
2019-04-07T11:58:52.926Z,33.74
2019-04-07T12:01:38.260Z,34.01
2019-04-07T12:04:24.031Z,34.03
2019-04-07T12:07:02.435Z,35.53
2019-04-07T12:09:55.248Z,35.21
2019-04-07T12:12:47.238Z,34.68
2019-04-07T12:15:40.072Z,34.46
2019-04-07T12:18:28.742Z,36.96
2019-04-07T12:21:19.344Z,38.67
2019-04-07T12:23:58.388Z,36.79
2019-04-07T12:26:47.920Z,38.00
2019-04-07T12:29:34.275Z,41.25
2019-04-07T12:32:20.268Z,34.84
2019-04-07T12:35:13.155Z,32.85
2019-04-07T12:38:10.074Z,34.49
2019-04-07T12:41:12.532Z,36.24
2019-04-07T12:43:48.498Z,35.89
2019-04-07T12:46:22.627Z,37.12
2019-04-07T12:49:18.875Z,35.61
2019-04-07T12:52:05.582Z,34.96
2019-04-07T12:54:48.186Z,33.23
2019-04-07T12:57:35.432Z,33.39
2019-04-07T13:00:23.915Z,33.38
2019-04-07T13:02:58.625Z,34.58
2019-04-07T13:05:46.335Z,34.23
2019-04-07T13:08:27.410Z,34.30
2019-04-07T13:11:25.468Z,35.81
2019-04-07T13:14:03.621Z,33.62
2019-04-07T13:16:49.211Z,34.02
2019-04-07T13:19:50.288Z,36.49
2019-04-07T13:22:45.924Z,37.69
2019-04-07T13:25:34.276Z,33.13
2019-04-07T13:28:14.185Z,32.21
2019-04-07T13:30:50.113Z,33.44
2019-04-07T13:33:26.439Z,32.28
2019-04-07T13:36:10.401Z,32.15
2019-04-07T13:38:43.181Z,34.36
2019-04-07T13:41:40.836Z,36.52
2019-04-07T13:44:17.216Z,38.01
2019-04-07T13:47:20.507Z,38.56
2019-04-07T13:49:59.802Z,36.11
2019-04-07T13:52:34.644Z,34.17
2019-04-07T13:55:19.445Z,33.51
2019-04-07T13:58:11.972Z,34.05
2019-04-07T14:00:48.366Z,35.65
2019-04-07T14:03:25.678Z,37.20
2019-04-07T14:06:18.344Z,33.79
2019-04-07T14:09:07.710Z,30.03
2019-04-07T14:11:58.811Z,27.50
2019-04-07T14:14:41.103Z,26.53
2019-04-07T14:17:16.513Z,25.91
2019-04-07T14:20:15.100Z,26.22
2019-04-07T14:23:01.023Z,27.34
2019-04-07T14:25:48.338Z,31.80
2019-04-07T14:28:42.311Z,31.17
2019-04-07T14:31:37.944Z,31.91
2019-04-07T14:34:41.928Z,31.87
2019-04-07T14:37:27.474Z,33.67
2019-04-07T14:40:20.382Z,34.77
2019-04-07T14:43:11.241Z,35.06
2019-04-07T14:46:04.441Z,35.74
2019-04-07T14:48:50.201Z,35.46
2019-04-07T14:51:35.913Z,34.39
2019-04-07T14:54:16.396Z,35.82
2019-04-07T14:56:58.809Z,34.97
2019-04-07T14:59:48.531Z,36.02
2019-04-07T15:02:17.563Z,31.95
2019-04-07T15:04:54.719Z,28.96
2019-04-07T15:07:41.992Z,27.38
2019-04-07T15:10:16.281Z,30.92
2019-04-07T15:12:45.739Z,33.56
2019-04-07T15:15:13.923Z,33.18
2019-04-07T15:17:43.624Z,34.89
2019-04-07T15:20:12.829Z,36.31
2019-04-07T15:22:44.871Z,36.50
2019-04-07T15:25:11.897Z,36.52
2019-04-07T15:27:40.132Z,35.71
2019-04-07T15:30:10.573Z,35.95
2019-04-07T15:32:36.900Z,35.73
2019-04-07T15:35:05.130Z,35.01
2019-04-07T15:37:32.533Z,31.93
2019-04-07T15:40:02.691Z,30.12
2019-04-07T15:42:34.970Z,31.95
2019-04-07T15:44:57.697Z,34.35
2019-04-07T15:47:26.639Z,35.50
2019-04-07T15:49:54.080Z,35.97
2019-04-07T15:52:21.832Z,33.61
2019-04-07T15:54:49.326Z,29.36
2019-04-07T15:57:20.896Z,30.47
2019-04-07T15:59:46.082Z,32.81
2019-04-07T16:02:16.126Z,34.60
2019-04-07T16:04:43.965Z,35.10
2019-04-07T16:07:12.247Z,34.01
2019-04-07T16:09:49.409Z,34.54
2019-04-07T16:12:08.535Z,36.33
2019-04-07T16:14:36.345Z,38.26
2019-04-07T16:17:05.671Z,35.10
2019-04-07T16:19:40.047Z,33.07
2019-04-07T16:22:04.305Z,33.17
2019-04-07T16:24:32.649Z,33.67
2019-04-07T16:27:03.293Z,33.25
2019-04-07T16:29:29.550Z,33.33
2019-04-07T16:31:58.592Z,34.40
2019-04-07T16:34:28.360Z,34.42
2019-04-07T16:36:58.234Z,33.09
2019-04-07T16:39:24.676Z,32.68
2019-04-07T16:41:51.727Z,30.78
2019-04-07T16:44:19.063Z,31.34
2019-04-07T16:46:46.408Z,31.76
2019-04-07T16:49:16.569Z,30.91
2019-04-07T16:51:42.865Z,30.22
2019-04-07T16:54:10.405Z,29.96
2019-04-07T16:56:39.173Z,29.75
2019-04-07T16:59:09.684Z,29.68
2019-04-07T17:01:35.570Z,29.81
2019-04-07T17:04:03.077Z,29.43
2019-04-07T17:06:34.696Z,29.59
2019-04-07T17:09:00.431Z,28.54
2019-04-07T17:11:27.964Z,26.81
2019-04-07T17:13:55.876Z,26.15
2019-04-07T17:16:25.005Z,26.01
2019-04-07T17:18:55.398Z,26.09
2019-04-07T17:21:22.352Z,25.98
2019-04-07T17:23:53.201Z,24.86
2019-04-07T17:26:18.788Z,24.14
2019-04-07T17:28:49.515Z,23.32
2019-04-07T17:31:17.591Z,22.65
2019-04-07T17:33:47.013Z,22.14
2019-04-07T17:36:17.526Z,21.87
2019-04-07T17:39:08.523Z,21.58
2019-04-07T17:41:37.107Z,21.63
2019-04-07T17:44:35.121Z,21.63
2019-04-07T17:47:41.539Z,21.17
2019-04-07T17:50:40.559Z,20.61
2019-04-07T17:53:26.523Z,20.07
2019-04-07T17:56:16.582Z,19.67
2019-04-07T17:59:08.739Z,19.37
2019-04-07T18:01:55.465Z,19.12
2019-04-07T18:04:50.131Z,18.94
2019-04-07T18:07:36.140Z,18.73
2019-04-07T18:10:22.521Z,18.55
2019-04-07T18:13:21.734Z,18.36
2019-04-07T18:16:05.114Z,18.20
2019-04-07T18:18:54.214Z,18.21
2019-04-07T18:21:38.653Z,18.22
2019-04-07T18:24:34.125Z,18.13
2019-04-07T18:27:21.166Z,17.97
2019-04-07T18:30:08.427Z,17.90
2019-04-07T18:32:57.617Z,17.97
2019-04-07T18:35:52.142Z,17.61
2019-04-07T18:38:33.068Z,17.31
2019-04-07T18:41:23.987Z,17.37
2019-04-07T18:44:38.330Z,17.34
2019-04-07T18:47:15.130Z,17.10
2019-04-07T18:50:12.168Z,17.15
2019-04-07T18:53:02.027Z,17.10
2019-04-07T18:55:49.002Z,17.14
2019-04-07T18:58:35.742Z,17.32
2019-04-07T19:01:27.208Z,17.59
2019-04-07T19:04:08.951Z,17.79
2019-04-07T19:06:52.647Z,17.86
2019-04-07T19:09:35.783Z,17.94
2019-04-07T19:12:20.100Z,17.91
2019-04-07T19:15:22.894Z,17.89
2019-04-07T19:18:08.076Z,17.84
2019-04-07T19:20:53.570Z,17.67
2019-04-07T19:23:37.535Z,17.53
2019-04-07T19:26:23.521Z,17.20
2019-04-07T19:29:06.372Z,16.93
2019-04-07T19:32:09.497Z,16.89
2019-04-07T19:35:04.604Z,16.90
2019-04-07T19:37:47.263Z,16.90
2019-04-07T19:40:34.461Z,17.07
2019-04-07T19:43:30.413Z,17.20
2019-04-07T19:46:13.332Z,17.39
2019-04-07T19:48:59.035Z,17.13
2019-04-07T19:51:46.997Z,16.83
2019-04-07T19:54:39.897Z,16.88
2019-04-07T19:57:27.795Z,17.03
2019-04-07T20:00:25.777Z,17.11
2019-04-07T20:03:13.446Z,17.20
2019-04-07T20:05:58.719Z,17.18
2019-04-07T20:08:51.551Z,17.16
2019-04-07T20:11:38.609Z,17.12
2019-04-07T20:14:46.578Z,17.13
2019-04-07T20:17:29.484Z,17.12
2019-04-07T20:20:10.988Z,17.14
2019-04-07T20:22:58.861Z,17.02
2019-04-07T20:25:59.370Z,17.07
2019-04-07T20:28:47.884Z,17.02
2019-04-07T20:31:36.458Z,17.06
2019-04-07T20:34:15.128Z,17.02
2019-04-07T20:36:51.672Z,16.97
2019-04-07T20:39:44.100Z,16.86
2019-04-07T20:42:34.669Z,16.79
2019-04-07T20:45:24.307Z,16.91
2019-04-07T20:48:09.769Z,16.84
2019-04-07T20:51:02.573Z,16.82
2019-04-07T20:54:03.711Z,16.66
2019-04-07T20:56:58.492Z,16.51
2019-04-07T20:59:48.369Z,16.58
2019-04-07T21:02:25.220Z,16.42
2019-04-07T21:05:17.541Z,16.33
2019-04-07T21:08:02.841Z,16.30
2019-04-07T21:10:54.305Z,16.35
2019-04-07T21:13:44.216Z,16.40
2019-04-07T21:16:31.280Z,16.43
2019-04-07T21:19:36.499Z,16.24
2019-04-07T21:22:19.475Z,16.19
2019-04-07T21:25:09.323Z,16.06
2019-04-07T21:27:44.918Z,16.11
2019-04-07T21:30:34.549Z,16.08
2019-04-07T21:33:23.663Z,15.89
2019-04-07T21:36:06.380Z,15.87
2019-04-07T21:39:05.736Z,15.88
2019-04-07T21:41:59.167Z,15.75
2019-04-07T21:44:45.853Z,15.77
2019-04-07T21:47:33.092Z,15.84
2019-04-07T21:50:20.842Z,15.97
2019-04-07T21:53:12.169Z,15.86
2019-04-07T21:56:06.381Z,15.87
2019-04-07T21:59:08.504Z,15.92
2019-04-07T22:01:59.216Z,15.97
2019-04-07T22:04:46.050Z,15.88
2019-04-07T22:07:35.582Z,15.76
2019-04-07T22:10:05.286Z,15.97
2019-04-07T22:12:33.866Z,16.05
2019-04-07T22:15:02.469Z,16.17
2019-04-07T22:17:32.602Z,16.28
2019-04-07T22:20:04.793Z,16.29
2019-04-07T22:22:31.871Z,16.16
2019-04-07T22:24:59.923Z,16.13
2019-04-07T22:27:28.565Z,15.94
2019-04-07T22:29:59.457Z,15.93
2019-04-07T22:32:26.801Z,15.85
2019-04-07T22:34:54.493Z,15.70
2019-04-07T22:37:22.459Z,15.56
2019-04-07T22:39:52.744Z,15.49
2019-04-07T22:42:22.462Z,15.19
2019-04-07T22:44:53.801Z,15.19
2019-04-07T22:47:22.292Z,15.08
2019-04-07T22:49:52.710Z,14.86
2019-04-07T22:52:20.540Z,14.82
2019-04-07T22:54:47.925Z,14.81
2019-04-07T22:57:15.462Z,14.76
2019-04-07T22:59:42.952Z,14.80
2019-04-07T23:02:10.320Z,14.78
2019-04-07T23:04:38.419Z,14.46
2019-04-07T23:07:06.140Z,14.33
2019-04-07T23:09:35.228Z,14.25
2019-04-07T23:12:03.291Z,14.26
2019-04-07T23:14:31.670Z,14.05
2019-04-07T23:16:59.006Z,13.97
2019-04-07T23:19:26.995Z,14.01
2019-04-07T23:21:54.245Z,14.01
2019-04-07T23:24:21.637Z,14.03
2019-04-07T23:26:48.999Z,13.92
2019-04-07T23:29:16.244Z,13.76
2019-04-07T23:31:44.037Z,13.80
2019-04-07T23:34:11.738Z,13.61
2019-04-07T23:36:38.892Z,13.74
2019-04-07T23:39:06.404Z,13.79
2019-04-07T23:41:34.048Z,13.76
2019-04-07T23:44:01.267Z,13.65
2019-04-07T23:46:28.570Z,13.78
2019-04-07T23:48:56.049Z,13.91
2019-04-07T23:51:23.284Z,13.81
2019-04-07T23:54:12.572Z,13.76
2019-04-07T23:56:43.479Z,13.74
2019-04-07T23:59:11.902Z,13.60
